Time;durP1;ratioP1;P1;durP2;ratioP2;P2;SDS_P1;SDS_P2;PMS_P1;PMS_P2;Temp;Humidity;BMP_temperature;BMP_pressure;BME280_temperature;BME280_humidity;BME280_pressure;Samples;Min_cycle;Max_cycle;Signal;HPM_P1;HPM_P2
2023/07/10 00:02:13;;;;;;;5.38;3.45;;;;;;;28.30;40.31;100017.16;10275539;28;20242;-65
2023/07/10 00:07:14;;;;;;;3.95;3.20;;;;;;;28.26;40.69;100005.16;10274807;28;20321;-65
2023/07/10 00:12:20;;;;;;;8.93;3.72;;;;;;;28.18;40.90;100008.53;10277971;28;20338;-65
2023/07/10 00:17:22;;;;;;;6.28;3.95;;;;;;;28.36;40.94;99988.47;10282160;28;20801;-65
2023/07/10 00:22:24;;;;;;;5.88;3.35;;;;;;;27.96;41.52;99979.69;10283447;28;20238;-65
2023/07/10 00:27:25;;;;;;;5.90;3.42;;;;;;;27.62;41.81;99991.69;10278221;28;20238;-65
2023/07/10 00:32:27;;;;;;;6.43;3.40;;;;;;;24.80;45.90;100001.72;10283310;28;20802;-65
2023/07/10 00:37:29;;;;;;;5.25;3.72;;;;;;;27.45;42.62;99953.72;10283869;28;20329;-65
2023/07/10 00:42:31;;;;;;;6.30;3.72;;;;;;;27.58;41.74;99989.81;10242393;28;20329;-65
2023/07/10 00:47:36;;;;;;;6.68;3.67;;;;;;;25.86;44.56;100026.41;10277761;28;20249;-65
2023/07/10 00:52:43;;;;;;;5.15;3.67;;;;;;;26.00;45.36;100008.22;10278084;28;20249;-65
2023/07/10 00:57:49;;;;;;;7.28;4.32;;;;;;;27.09;43.58;100017.28;10279750;28;20250;-65
2023/07/10 01:02:51;;;;;;;7.00;3.55;;;;;;;27.70;41.79;100053.47;10280455;28;20304;-64
2023/07/10 01:07:56;;;;;;;5.53;4.05;;;;;;;26.66;44.04;100077.47;10280317;28;20238;-64
2023/07/10 01:12:58;;;;;;;4.93;3.75;;;;;;;27.34;43.35;100061.28;10280580;28;20235;-65
2023/07/10 01:18:00;;;;;;;7.95;4.72;;;;;;;25.72;45.86;100080.97;10277596;28;20298;-65
2023/07/10 01:23:03;;;;;;;6.55;4.28;;;;;;;25.88;45.50;100072.69;10279300;28;20211;-64
2023/07/10 01:28:09;;;;;;;6.18;3.72;;;;;;;24.87;47.11;100089.84;10277565;28;20303;-65
2023/07/10 01:33:26;;;;;;;6.78;4.00;;;;;;;26.45;44.50;100063.09;10280198;28;20238;-65
2023/07/10 01:38:36;;;;;;;5.95;3.90;;;;;;;27.17;43.33;100076.22;10276443;28;20293;-65
2023/07/10 01:43:38;;;;;;;6.35;3.72;;;;;;;27.02;43.73;100062.66;10279125;28;20238;-64
2023/07/10 01:48:40;;;;;;;5.93;4.38;;;;;;;26.98;43.47;100080.81;10276462;28;20248;-65
2023/07/10 01:53:44;;;;;;;4.53;3.53;;;;;;;26.48;44.60;100054.28;10278790;28;20652;-65
2023/07/10 01:58:46;;;;;;;5.38;3.78;;;;;;;26.51;43.51;100058.38;10274560;28;20597;-65
2023/07/10 02:03:48;;;;;;;5.70;3.70;;;;;;;27.26;42.79;100036.09;10277415;28;20274;-65
2023/07/10 02:08:50;;;;;;;7.10;3.92;;;;;;;25.08;45.97;100083.25;10274775;28;20297;-65
2023/07/10 02:13:52;;;;;;;5.95;3.80;;;;;;;26.91;43.30;100045.47;10276429;28;20269;-64
2023/07/10 02:18:53;;;;;;;5.43;3.63;;;;;;;25.40;44.73;100087.63;10276972;28;20243;-64
2023/07/10 02:23:55;;;;;;;4.93;3.47;;;;;;;26.91;42.59;100061.94;10279490;28;20310;-64
2023/07/10 02:28:57;;;;;;;5.20;3.70;;;;;;;27.03;42.53;100081.59;10274810;28;20237;-65
2023/07/10 02:33:59;;;;;;;8.80;3.60;;;;;;;26.55;43.24;100063.03;10274422;28;20314;-65
2023/07/10 02:39:01;;;;;;;7.75;3.70;;;;;;;25.94;43.50;100066.09;10278098;28;20287;-65
2023/07/10 02:44:03;;;;;;;7.85;3.90;;;;;;;24.79;45.81;100068.50;10276049;28;20309;-65
2023/07/10 02:49:04;;;;;;;7.22;3.75;;;;;;;24.61;45.95;100042.47;10273874;28;20332;-64
2023/07/10 02:54:11;;;;;;;6.55;3.75;;;;;;;25.05;45.24;100085.72;10280273;28;20306;-65
2023/07/10 02:59:13;;;;;;;5.38;4.05;;;;;;;25.55;44.84;100094.97;10276216;28;20297;-65
2023/07/10 03:04:14;;;;;;;4.63;3.28;;;;;;;25.99;44.48;100060.59;10273629;28;20297;-65
2023/07/10 03:09:16;;;;;;;4.97;3.80;;;;;;;22.75;50.25;100144.38;10276286;28;20243;-64
2023/07/10 03:14:18;;;;;;;6.22;4.35;;;;;;;25.55;45.51;100072.25;10276276;28;20234;-65
2023/07/10 03:19:20;;;;;;;4.57;3.92;;;;;;;26.15;44.41;100080.53;10274510;28;20231;-65
2023/07/10 03:24:21;;;;;;;5.18;4.00;;;;;;;25.04;45.95;100150.59;10277841;28;20230;-65
2023/07/10 03:29:23;;;;;;;4.80;3.70;;;;;;;25.70;45.50;100118.78;10270150;28;20695;-65
2023/07/10 03:34:25;;;;;;;6.00;4.05;;;;;;;25.39;46.11;100101.56;10274752;28;20258;-67
2023/07/10 03:39:27;;;;;;;6.72;4.18;;;;;;;24.23;48.18;100162.97;10270536;28;21686;-65
2023/07/10 03:44:29;;;;;;;5.45;4.45;;;;;;;23.39;50.77;100151.78;10249531;28;20721;-65
2023/07/10 03:49:31;;;;;;;7.40;4.50;;;;;;;24.85;48.15;100105.69;10284325;23;20325;-36
2023/07/10 03:54:33;;;;;;;6.00;4.32;;;;;;;24.06;50.28;100149.50;10271449;28;20233;-35
2023/07/10 03:59:34;;;;;;;8.27;4.25;;;;;;;25.75;47.59;100085.09;10283096;28;20231;-35
2023/07/10 04:04:36;;;;;;;7.85;4.07;;;;;;;25.63;47.76;100099.06;10278807;28;20258;-37
2023/07/10 04:09:38;;;;;;;6.43;4.60;;;;;;;24.50;50.04;100172.94;10277628;28;20250;-35
2023/07/10 04:14:40;;;;;;;7.85;4.85;;;;;;;24.53;50.27;100148.59;10277946;28;20242;-35
2023/07/10 04:19:42;;;;;;;6.28;4.50;;;;;;;24.67;50.54;100153.53;10285665;28;20245;-38
2023/07/10 04:24:43;;;;;;;5.55;4.47;;;;;;;23.69;53.07;100112.16;10283873;28;20259;-35
2023/07/10 04:29:45;;;;;;;7.32;4.60;;;;;;;22.93;54.15;100120.56;10281445;28;20235;-37
2023/07/10 04:34:47;;;;;;;7.07;4.90;;;;;;;22.62;55.13;100172.91;10279833;28;20262;-36
2023/07/10 04:39:49;;;;;;;10.20;4.60;;;;;;;22.39;55.61;100194.97;10289712;28;20766;-36
2023/07/10 04:44:51;;;;;;;6.72;3.85;;;;;;;24.45;52.01;100171.00;10278114;28;20632;-36
2023/07/10 04:49:53;;;;;;;8.10;4.50;;;;;;;24.26;52.21;100189.78;10282140;28;20297;-36
2023/07/10 04:54:54;;;;;;;6.53;4.70;;;;;;;25.17;50.53;100156.63;10281710;28;20211;-36
2023/07/10 04:59:56;;;;;;;7.32;4.57;;;;;;;24.83;51.23;100195.47;10282854;28;21064;-36
2023/07/10 05:04:58;;;;;;;7.22;4.28;;;;;;;24.61;51.83;100171.03;10276927;28;20235;-36
2023/07/10 05:10:00;;;;;;;8.10;4.30;;;;;;;24.66;52.00;100181.97;10268971;28;20246;-36
2023/07/10 05:15:02;;;;;;;8.25;4.35;;;;;;;24.02;52.01;100232.28;10273859;28;20242;-36
2023/07/10 05:20:05;;;;;;;6.40;4.47;;;;;;;26.06;49.05;100175.44;10269635;28;20259;-36
2023/07/10 05:25:08;;;;;;;8.02;3.88;;;;;;;26.43;48.49;100180.50;10275999;28;20235;-36
2023/07/10 05:30:10;;;;;;;5.50;4.20;;;;;;;24.68;51.53;100240.00;10280028;28;20711;-36
2023/07/10 05:35:12;;;;;;;8.35;4.47;;;;;;;25.59;49.91;100213.88;10264623;28;20333;-36
2023/07/10 05:40:14;;;;;;;4.68;3.75;;;;;;;25.57;50.09;100215.25;10283663;28;20238;-36
2023/07/10 05:45:16;;;;;;;7.03;4.45;;;;;;;25.55;50.35;100201.00;10279906;28;20243;-36
2023/07/10 05:50:18;;;;;;;5.65;4.43;;;;;;;25.42;51.13;100180.47;10281021;28;20296;-36
2023/07/10 05:55:22;;;;;;;7.05;4.45;;;;;;;24.82;51.81;100227.47;10267589;28;20239;-36
2023/07/10 06:00:23;;;;;;;6.40;4.35;;;;;;;24.62;52.06;100252.84;10285138;28;20234;-36
2023/07/10 06:05:25;;;;;;;8.40;4.43;;;;;;;25.94;49.55;100211.38;10275362;28;20227;-36
2023/07/10 06:10:27;;;;;;;7.30;4.35;;;;;;;23.99;53.02;100275.44;10270454;28;20231;-35
2023/07/10 06:15:30;;;;;;;8.98;4.45;;;;;;;26.12;50.10;100201.75;10275405;28;20231;-36
2023/07/10 06:20:31;;;;;;;4.85;3.90;;;;;;;26.03;50.14;100199.56;10290354;28;20953;-36
2023/07/10 06:25:33;;;;;;;4.82;4.32;;;;;;;25.58;51.18;100219.63;10272689;28;20234;-36
2023/07/10 06:30:41;;;;;;;7.93;4.25;;;;;;;26.17;50.32;100186.09;10264064;28;20323;-34
2023/07/10 06:35:43;;;;;;;6.75;4.07;;;;;;;26.55;49.01;100197.47;10283136;28;20269;-34
2023/07/10 06:40:49;;;;;;;5.10;3.88;;;;;;;26.20;49.63;100221.19;10272528;28;20246;-36
2023/07/10 06:45:55;;;;;;;7.50;4.43;;;;;;;25.06;52.85;100213.28;10288759;28;20316;-34
2023/07/10 06:50:57;;;;;;;6.72;4.63;;;;;;;24.35;53.56;100231.94;10274909;28;20246;-35
2023/07/10 06:56:01;;;;;;;6.32;4.20;;;;;;;25.89;51.16;100198.50;10274647;28;20234;-36
2023/07/10 07:01:04;;;;;;;7.38;4.65;;;;;;;24.68;53.54;100229.91;10263043;28;20329;-36
2023/07/10 07:06:07;;;;;;;5.85;3.97;;;;;;;25.79;51.17;100185.66;10281500;28;20235;-36
2023/07/10 07:11:09;;;;;;;7.57;4.43;;;;;;;26.15;50.50;100185.53;10281805;28;20261;-36
2023/07/10 07:16:11;;;;;;;5.72;4.15;;;;;;;25.86;50.46;100209.19;10288680;28;20237;-36
2023/07/10 07:21:14;;;;;;;4.65;3.55;;;;;;;24.97;52.14;100259.53;10282556;28;20264;-36
2023/07/10 07:26:16;;;;;;;6.25;4.25;;;;;;;25.03;51.62;100272.13;10283252;28;20322;-36
2023/07/10 07:31:18;;;;;;;4.82;3.75;;;;;;;24.76;52.32;100274.25;10287346;28;20593;-36
2023/07/10 07:36:20;;;;;;;6.30;4.30;;;;;;;27.27;48.13;100219.00;10280054;28;20226;-36
2023/07/10 07:41:22;;;;;;;5.53;4.18;;;;;;;26.10;50.61;100237.66;10280734;28;20242;-36
2023/07/10 07:46:24;;;;;;;6.70;4.38;;;;;;;26.79;48.83;100253.63;10285483;28;20226;-36
2023/07/10 07:51:26;;;;;;;6.85;4.28;;;;;;;27.33;47.48;100247.28;10280620;28;20292;-36
2023/07/10 07:56:28;;;;;;;6.47;4.20;;;;;;;27.40;47.29;100230.47;10284547;28;20229;-36
2023/07/10 08:01:29;;;;;;;6.60;3.80;;;;;;;27.92;46.38;100230.81;10278770;28;20290;-36
2023/07/10 08:06:35;;;;;;;6.63;3.90;;;;;;;27.88;46.55;100222.31;10283346;28;20239;-36
2023/07/10 08:11:38;;;;;;;4.65;3.67;;;;;;;27.02;47.77;100263.09;10266962;28;20330;-36
2023/07/10 08:16:41;;;;;;;6.55;4.35;;;;;;;27.38;47.16;100233.50;10287389;28;20254;-36
2023/07/10 08:21:43;;;;;;;6.68;3.95;;;;;;;26.20;49.36;100278.78;10288527;28;20333;-36
2023/07/10 08:26:46;;;;;;;5.60;3.83;;;;;;;26.58;48.41;100265.47;10272689;28;20249;-36
2023/07/10 08:31:53;;;;;;;5.18;4.07;;;;;;;26.88;48.16;100250.00;10277703;28;20238;-36
2023/07/10 08:36:58;;;;;;;8.35;4.63;;;;;;;27.96;46.96;100234.63;10275594;28;20230;-36
2023/07/10 08:42:13;;;;;;;4.10;3.47;;;;;;;27.83;46.31;100260.88;10283113;28;20924;-36
2023/07/10 08:47:23;;;;;;;6.38;3.80;;;;;;;28.33;45.44;100266.16;10277977;28;20241;-36
2023/07/10 08:52:53;;;;;;;6.07;4.40;;;;;;;28.37;45.56;100253.44;10282293;28;20251;-36
2023/07/10 08:57:59;;;;;;;5.07;4.07;;;;;;;27.27;46.94;100271.19;10241273;28;20243;-36
2023/07/10 09:03:39;;;;;;;5.53;4.20;;;;;;;27.80;46.04;100233.94;10284487;28;20215;-36
2023/07/10 09:08:44;;;;;;;5.78;3.70;;;;;;;27.32;46.21;100284.06;10284739;28;20787;-36
2023/07/10 09:14:21;;;;;;;6.22;4.20;;;;;;;28.05;45.49;100238.34;10283087;28;20270;-36
2023/07/10 09:19:24;;;;;;;7.43;4.90;;;;;;;27.79;45.72;100270.81;10273998;28;20239;-34
2023/07/10 09:24:26;;;;;;;6.18;4.60;;;;;;;28.23;45.33;100226.63;10278370;28;20230;-36
2023/07/10 09:29:36;;;;;;;6.18;3.88;;;;;;;26.03;47.97;100292.78;10279343;28;20226;-36
2023/07/10 09:34:46;;;;;;;5.45;4.22;;;;;;;28.30;45.89;100197.94;10268270;28;20717;-34
2023/07/10 09:39:48;;;;;;;6.88;3.97;;;;;;;28.94;44.32;100235.06;10285728;28;20250;-36
2023/07/10 09:44:53;;;;;;;4.68;3.28;;;;;;;27.17;46.16;100260.25;10285591;28;20765;-37
2023/07/10 09:49:58;;;;;;;4.75;3.33;;;;;;;28.07;43.91;100222.41;10274054;28;20716;-34
2023/07/10 09:55:06;;;;;;;4.32;3.83;;;;;;;27.35;44.96;100261.53;10274542;28;20802;-34
2023/07/10 10:00:20;;;;;;;5.25;4.03;;;;;;;29.13;43.39;100226.84;10285626;28;20622;-36
2023/07/10 10:05:23;;;;;;;6.55;3.85;;;;;;;29.60;42.65;100209.53;10273909;28;20222;-36
2023/07/10 10:10:30;;;;;;;6.05;3.45;;;;;;;29.48;41.29;100232.84;10279005;28;20289;-36
2023/07/10 10:15:43;;;;;;;6.35;3.83;;;;;;;28.72;42.12;100219.13;10279517;28;20243;-36
2023/07/10 10:20:47;;;;;;;5.80;3.65;;;;;;;29.43;40.34;100199.88;10263752;28;20298;-37
2023/07/10 10:25:51;;;;;;;4.80;3.47;;;;;;;29.09;41.41;100220.25;10281363;28;20254;-36
2023/07/10 10:31:07;;;;;;;5.22;3.42;;;;;;;29.39;41.38;100206.31;10267953;28;20337;-34
2023/07/10 10:36:11;;;;;;;6.07;3.90;;;;;;;29.84;39.64;100212.94;10288634;28;20590;-36
2023/07/10 10:41:26;;;;;;;4.30;3.20;;;;;;;29.20;40.54;100209.09;10270148;28;20325;-36
2023/07/10 10:46:48;;;;;;;4.32;3.20;;;;;;;28.82;39.18;100242.16;10279674;28;20232;-34
2023/07/10 10:52:15;;;;;;;9.15;2.83;;;;;;;30.14;38.66;100177.59;10275441;28;20661;-34
2023/07/10 10:57:32;;;;;;;6.47;3.70;;;;;;;29.50;37.23;100208.59;10278583;28;20788;-36
2023/07/10 11:06:26;;;;;;;5.20;3.47;;;;;;;28.50;39.25;100153.63;10498487;27;1999324;-67
2023/07/10 11:11:34;;;;;;;4.88;3.58;;;;;;;27.44;40.35;100173.81;10529790;28;20231;-67
2023/07/10 11:16:36;;;;;;;3.85;3.00;;;;;;;28.96;38.86;100161.25;10499690;28;20269;-67
2023/07/10 11:21:40;;;;;;;3.83;2.60;;;;;;;28.08;38.31;100182.78;10499006;28;20234;-67
2023/07/10 11:26:42;;;;;;;3.83;3.00;;;;;;;29.00;38.49;100166.97;10507485;28;20230;-67
2023/07/10 11:31:55;;;;;;;6.05;3.50;;;;;;;28.92;39.18;100159.38;10497317;28;20234;-67
2023/07/10 11:36:58;;;;;;;4.43;3.25;;;;;;;28.70;38.60;100187.53;10492029;28;20227;-68
2023/07/10 11:42:01;;;;;;;4.88;3.10;;;;;;;27.16;40.29;100148.78;10494993;28;20233;-67
2023/07/10 11:47:08;;;;;;;4.72;3.28;;;;;;;29.78;38.11;100160.97;10495858;28;20261;-68
2023/07/10 11:52:13;;;;;;;6.38;3.08;;;;;;;29.82;37.81;100146.22;10500494;28;20318;-68
2023/07/10 11:57:19;;;;;;;5.13;2.78;;;;;;;28.23;36.24;100173.53;10496904;28;20231;-68
2023/07/10 12:02:48;;;;;;;4.45;2.95;;;;;;;28.40;36.20;100140.03;10495464;28;20322;-68
2023/07/10 12:07:50;;;;;;;3.22;2.92;;;;;;;28.86;34.84;100155.06;10493792;28;20233;-68
2023/07/10 12:12:54;;;;;;;3.53;2.45;;;;;;;29.24;34.66;100168.81;10493224;28;20782;-68
2023/07/10 12:17:57;;;;;;;4.00;2.63;;;;;;;29.46;33.99;100137.81;10470984;28;20772;-68
2023/07/10 12:23:05;;;;;;;4.13;2.40;;;;;;;29.15;35.13;100155.72;10475907;28;20239;-68
2023/07/10 12:28:15;;;;;;;3.90;2.80;;;;;;;30.31;34.04;100132.00;10467324;28;20298;-68
2023/07/10 12:33:48;;;;;;;3.95;2.47;;;;;;;28.81;35.04;100155.94;10459983;28;20242;-67
2023/07/10 12:38:53;;;;;;;3.78;2.78;;;;;;;29.48;35.50;100136.38;10475580;28;20319;-68
2023/07/10 12:44:01;;;;;;;5.35;2.75;;;;;;;29.21;35.12;100125.31;10465046;28;20238;-68
2023/07/10 12:49:15;;;;;;;3.35;2.55;;;;;;;29.71;34.26;100147.56;10461437;28;20227;-67
2023/07/10 12:54:42;;;;;;;3.47;2.42;;;;;;;29.85;33.90;100134.59;10475855;28;20223;-67
2023/07/10 12:59:46;;;;;;;4.35;2.80;;;;;;;29.48;34.36;100114.31;10468594;28;20241;-67
2023/07/10 13:04:59;;;;;;;2.58;2.38;;;;;;;28.96;34.10;100119.09;10469411;28;20277;-67
2023/07/10 13:10:04;;;;;;;3.10;2.40;;;;;;;30.98;32.62;100090.66;10466318;28;20269;-67
2023/07/10 13:15:11;;;;;;;2.78;2.20;;;;;;;29.62;33.51;100138.38;10463260;28;20254;-67
2023/07/10 13:20:25;;;;;;;3.63;2.53;;;;;;;30.91;33.17;100093.03;10463008;28;20238;-67
2023/07/10 13:25:31;;;;;;;2.65;2.22;;;;;;;29.99;33.25;100129.06;10470735;28;20322;-68
2023/07/10 13:30:33;;;;;;;3.60;2.67;;;;;;;30.92;33.34;100114.03;10463710;28;20361;-68
2023/07/10 13:35:35;;;;;;;5.38;2.72;;;;;;;29.37;32.27;100118.41;10463144;28;20259;-67
2023/07/10 13:40:36;;;;;;;2.78;2.17;;;;;;;29.40;32.56;100144.53;10463402;28;20232;-67
2023/07/10 13:45:38;;;;;;;3.67;2.40;;;;;;;30.57;31.19;100110.19;10463690;28;20327;-71
2023/07/10 13:50:42;;;;;;;4.45;2.70;;;;;;;29.73;32.18;100105.91;10451901;28;20286;-68
2023/07/10 13:55:45;;;;;;;4.57;2.38;;;;;;;30.29;31.24;100126.78;10456680;28;20713;-68
2023/07/10 14:00:49;;;;;;;3.47;2.55;;;;;;;29.74;31.94;100129.59;10463122;28;20671;-68
2023/07/10 14:05:51;;;;;;;4.22;2.70;;;;;;;28.67;32.91;100131.13;10465597;28;20247;-68
2023/07/10 14:10:56;;;;;;;4.05;2.45;;;;;;;28.66;32.93;100120.41;10474609;28;20248;-68
2023/07/10 14:16:06;;;;;;;3.80;2.55;;;;;;;29.66;31.98;100128.38;10465821;28;20281;-68
2023/07/10 14:21:12;;;;;;;3.58;2.60;;;;;;;30.22;31.50;100094.09;10465033;28;20255;-68
2023/07/10 14:26:25;;;;;;;2.78;2.20;;;;;;;30.09;32.11;100118.97;10470043;28;20326;-68
2023/07/10 14:31:28;;;;;;;3.92;2.63;;;;;;;29.93;30.97;100107.44;10469851;28;20231;-67
2023/07/10 14:36:30;;;;;;;2.75;2.10;;;;;;;31.35;30.48;100116.22;10460209;28;20630;-69
2023/07/10 14:41:32;;;;;;;3.65;2.63;;;;;;;30.12;31.36;100113.66;10456804;28;20722;-68
2023/07/10 14:46:37;;;;;;;6.13;2.53;;;;;;;30.15;32.02;100090.16;10460956;28;20776;-70
2023/07/10 14:51:40;;;;;;;3.95;2.22;;;;;;;30.54;30.83;100088.72;10453248;28;20267;-66
2023/07/10 14:56:42;;;;;;;2.80;2.33;;;;;;;31.02;30.82;100065.19;10454539;28;20234;-69
2023/07/10 15:05:23;;;;;;;4.40;2.25;;;;;;;28.93;33.15;100042.59;10392051;28;21396;-69
2023/07/10 15:10:27;;;;;;;2.80;2.30;;;;;;;28.96;32.00;100081.38;10370265;28;20244;-69
2023/07/10 15:15:33;;;;;;;2.90;2.22;;;;;;;28.68;32.79;100074.97;10383259;28;20321;-71
2023/07/10 15:20:35;;;;;;;3.47;2.35;;;;;;;30.11;31.34;100043.03;10384962;28;20245;-70
2023/07/10 15:25:37;;;;;;;2.47;2.08;;;;;;;29.56;31.61;100063.19;10384448;28;20237;-71
2023/07/10 15:30:41;;;;;;;4.22;2.80;;;;;;;29.35;32.15;100068.28;10384599;28;20257;-70
2023/07/10 15:35:42;;;;;;;4.10;2.35;;;;;;;29.28;32.00;100085.22;10376390;28;20291;-70
2023/07/10 15:40:47;;;;;;;3.28;2.50;;;;;;;29.20;31.49;100087.84;10371627;28;20324;-71
2023/07/10 15:45:48;;;;;;;2.92;2.38;;;;;;;29.55;31.90;100061.56;10381494;28;20225;-70
2023/07/10 15:50:52;;;;;;;3.97;2.40;;;;;;;30.20;31.05;100051.41;10385399;23;20337;-35
2023/07/10 15:55:55;;;;;;;4.15;2.28;;;;;;;30.16;31.25;100055.91;10312077;28;20728;-35
2023/07/10 16:00:57;;;;;;;5.25;2.17;;;;;;;30.81;30.79;100036.09;10306850;28;20242;-35
2023/07/10 16:06:03;;;;;;;3.33;2.72;;;;;;;29.68;31.53;100038.69;10309690;28;20277;-38
2023/07/10 16:11:16;;;;;;;4.13;2.08;;;;;;;29.15;32.06;100064.81;10309575;28;20773;-35
2023/07/10 16:16:18;;;;;;;3.03;2.33;;;;;;;30.62;30.63;100038.28;10290668;28;20230;-36
2023/07/10 16:21:22;;;;;;;3.83;2.47;;;;;;;28.17;32.75;100084.75;10286614;28;20293;-35
2023/07/10 16:26:25;;;;;;;3.58;2.30;;;;;;;28.82;32.31;100060.41;10288945;28;20955;-35
2023/07/10 16:31:28;;;;;;;3.50;2.55;;;;;;;29.13;31.99;100046.94;10280591;28;20226;-35
2023/07/10 16:36:31;;;;;;;3.33;2.40;;;;;;;27.86;33.24;100071.38;10284152;28;20643;-35
2023/07/10 16:41:32;;;;;;;3.63;2.55;;;;;;;27.85;32.79;100085.44;10287052;28;20234;-37
2023/07/10 16:46:34;;;;;;;3.92;2.47;;;;;;;29.99;31.18;100037.22;10286607;28;20242;-35
2023/07/10 16:51:36;;;;;;;3.22;2.20;;;;;;;28.29;32.22;100094.50;10275603;28;20250;-35
2023/07/10 16:56:38;;;;;;;5.40;2.58;;;;;;;29.20;31.63;100050.13;10284466;28;20272;-35
2023/07/10 17:01:41;;;;;;;5.18;2.38;;;;;;;31.02;30.45;100063.22;10283143;28;20242;-35
2023/07/10 17:06:49;;;;;;;2.63;2.20;;;;;;;28.89;32.64;100063.59;10269723;28;20321;-35
2023/07/10 17:11:51;;;;;;;2.58;2.38;;;;;;;28.94;32.50;100055.25;10280235;28;20760;-37
2023/07/10 17:16:53;;;;;;;4.82;2.10;;;;;;;29.45;31.54;100084.63;10265960;28;20267;-35
2023/07/10 17:21:55;;;;;;;2.78;2.15;;;;;;;28.46;32.47;100077.47;10281073;28;20237;-36
2023/07/10 17:26:56;;;;;;;4.53;2.42;;;;;;;28.64;32.03;100071.13;10275548;28;20238;-35
2023/07/10 17:31:59;;;;;;;4.85;3.03;;;;;;;28.30;32.70;100046.63;10277015;28;20227;-37
2023/07/10 17:37:01;;;;;;;3.95;2.42;;;;;;;28.02;33.18;100055.53;10283277;28;20292;-35
2023/07/10 17:42:03;;;;;;;3.97;2.55;;;;;;;30.19;31.10;100022.97;10280161;28;20229;-35
2023/07/10 17:47:13;;;;;;;2.63;2.08;;;;;;;28.49;32.05;100060.34;10274363;28;20265;-35
2023/07/10 17:52:17;;;;;;;3.72;2.30;;;;;;;28.77;32.07;100047.56;10263583;28;20249;-37
2023/07/10 17:57:19;;;;;;;4.40;2.45;;;;;;;29.01;31.70;100076.88;10266515;28;20235;-35
2023/07/10 18:02:30;;;;;;;2.60;2.40;;;;;;;28.59;32.46;100054.69;10273316;28;20235;-35
2023/07/10 18:07:32;;;;;;;2.55;1.80;;;;;;;28.84;31.73;100075.50;10277135;28;20254;-35
2023/07/10 18:12:34;;;;;;;3.80;1.95;;;;;;;28.92;31.35;100074.81;10281220;28;20251;-35
2023/07/10 18:17:35;;;;;;;5.00;2.30;;;;;;;30.13;31.12;100049.06;10280935;28;20238;-35
2023/07/10 18:22:40;;;;;;;3.10;2.22;;;;;;;28.61;32.14;100096.53;10279398;28;20226;-35
2023/07/10 18:27:45;;;;;;;4.82;2.38;;;;;;;28.68;32.77;100058.44;10283533;28;20260;-35
2023/07/10 18:32:47;;;;;;;2.90;2.13;;;;;;;29.94;31.04;100062.16;10271512;28;20316;-35
2023/07/10 18:37:49;;;;;;;5.15;2.30;;;;;;;30.88;31.52;100060.53;10274591;28;20281;-35
2023/07/10 18:42:51;;;;;;;5.40;2.47;;;;;;;30.30;31.65;100086.22;10281468;28;20230;-36
2023/07/10 18:47:53;;;;;;;3.28;2.28;;;;;;;29.61;32.78;100098.16;10272573;28;20237;-35
2023/07/10 18:52:54;;;;;;;3.92;2.83;;;;;;;28.52;34.03;100073.53;10290756;28;20325;-38
2023/07/10 18:57:57;;;;;;;3.50;2.53;;;;;;;30.25;32.69;100060.38;10282693;28;21001;-35
2023/07/10 19:02:58;;;;;;;4.72;2.53;;;;;;;30.72;31.45;100053.75;10277091;28;20276;-38
2023/07/10 19:08:00;;;;;;;4.78;2.20;;;;;;;29.64;32.80;100100.28;10286568;28;20559;-35
2023/07/10 19:13:11;;;;;;;4.30;2.53;;;;;;;28.11;35.24;100055.66;10261223;28;21026;-38
2023/07/10 19:18:26;;;;;;;5.32;2.60;;;;;;;27.80;34.63;100066.25;10288666;28;20204;-35
2023/07/10 19:23:32;;;;;;;3.78;2.60;;;;;;;27.43;35.36;100054.00;10261995;28;20239;-38
2023/07/10 19:28:34;;;;;;;7.35;2.47;;;;;;;28.13;33.87;100042.44;10274512;28;20246;-35
2023/07/10 19:33:40;;;;;;;3.25;2.08;;;;;;;29.45;33.58;100072.78;10268438;28;20301;-35
2023/07/10 19:38:42;;;;;;;3.65;2.30;;;;;;;29.03;34.06;100099.44;10272554;28;20234;-35
2023/07/10 19:43:43;;;;;;;6.75;2.67;;;;;;;29.21;34.40;100075.72;10279657;28;20234;-35
2023/07/10 19:48:47;;;;;;;4.25;2.47;;;;;;;28.88;35.00;100089.47;10267647;28;20272;-35
2023/07/10 19:53:49;;;;;;;3.63;2.50;;;;;;;28.76;35.47;100087.19;10273809;28;20238;-35
2023/07/10 19:58:51;;;;;;;6.72;2.40;;;;;;;28.34;35.56;100094.44;10276044;28;20237;-35
2023/07/10 20:03:53;;;;;;;4.13;2.35;;;;;;;26.51;37.07;100094.06;10271636;28;20239;-37
2023/07/10 20:08:57;;;;;;;5.28;2.60;;;;;;;27.12;36.70;100071.59;10264260;28;20253;-35
2023/07/10 20:13:59;;;;;;;4.45;2.35;;;;;;;27.67;35.86;100106.25;10283119;28;20310;-36
2023/07/10 20:19:01;;;;;;;6.75;2.60;;;;;;;27.71;35.84;100104.56;10270946;28;20344;-35
2023/07/10 20:24:05;;;;;;;3.63;2.30;;;;;;;26.85;37.93;100099.56;10278323;28;20762;-35
2023/07/10 20:29:16;;;;;;;5.60;2.50;;;;;;;27.29;37.50;100089.59;10275482;28;20230;-36
2023/07/10 20:34:19;;;;;;;7.35;2.70;;;;;;;27.81;36.94;100074.19;10285248;28;20306;-36
2023/07/10 20:39:20;;;;;;;4.45;2.35;;;;;;;25.93;39.11;100095.44;10278984;28;20246;-34
2023/07/10 20:44:22;;;;;;;6.10;2.83;;;;;;;25.29;39.11;100089.56;10290498;28;20313;-34
2023/07/10 20:49:26;;;;;;;4.57;2.65;;;;;;;26.10;37.41;100089.59;10274115;28;20618;-35
2023/07/10 20:54:31;;;;;;;4.18;2.40;;;;;;;26.05;37.71;100081.41;10275666;28;20235;-37
2023/07/10 20:59:32;;;;;;;5.53;2.90;;;;;;;27.55;35.87;100081.09;10275084;28;20235;-36
2023/07/10 21:04:34;;;;;;;4.03;2.47;;;;;;;27.35;36.54;100099.44;10285439;28;20665;-36
2023/07/10 21:09:36;;;;;;;4.55;2.67;;;;;;;27.02;37.90;100103.84;10287088;28;20724;-36
2023/07/10 21:14:38;;;;;;;3.00;2.40;;;;;;;26.75;38.77;100091.44;10288079;28;21153;-36
2023/07/10 21:19:41;;;;;;;3.80;2.47;;;;;;;25.05;40.88;100088.44;10283078;28;20953;-34
2023/07/10 21:24:43;;;;;;;3.72;2.50;;;;;;;26.12;37.52;100092.88;10283732;28;20320;-36
2023/07/10 21:29:51;;;;;;;3.47;2.70;;;;;;;26.81;36.50;100054.59;10277172;28;20614;-36
2023/07/10 21:34:53;;;;;;;3.20;2.38;;;;;;;27.10;37.23;100071.06;10284330;28;20226;-37
2023/07/10 21:39:55;;;;;;;3.03;2.33;;;;;;;26.60;38.65;100075.88;10290883;28;20716;-36
2023/07/10 21:44:57;;;;;;;3.90;2.50;;;;;;;25.57;40.21;100078.25;10280554;28;20465;-36
2023/07/10 21:49:58;;;;;;;3.05;2.35;;;;;;;26.10;38.75;100061.38;10273795;28;20203;-36
2023/07/10 21:55:00;;;;;;;5.00;2.90;;;;;;;24.88;40.41;100116.09;10276547;28;20238;-36
2023/07/10 22:00:04;;;;;;;4.45;2.40;;;;;;;25.17;41.85;100038.88;10273566;28;20223;-37
2023/07/10 22:05:14;;;;;;;2.55;2.28;;;;;;;26.34;39.27;100048.63;10277573;28;20241;-37
2023/07/10 22:10:15;;;;;;;3.90;2.53;;;;;;;25.18;40.03;100098.84;10280388;28;20202;-37
2023/07/10 22:15:21;;;;;;;3.30;2.60;;;;;;;24.55;41.64;100078.00;10294470;28;20772;-37
2023/07/10 22:20:23;;;;;;;5.60;2.72;;;;;;;26.76;38.30;100046.41;10281986;28;20210;-37
2023/07/10 22:25:25;;;;;;;3.92;2.63;;;;;;;26.46;38.66;100070.22;10282230;28;20267;-37
2023/07/10 22:30:27;;;;;;;4.82;2.72;;;;;;;25.89;39.66;100077.09;10276547;28;20235;-37
2023/07/10 22:35:29;;;;;;;4.35;2.65;;;;;;;24.60;41.87;100090.88;10265228;28;20231;-37
2023/07/10 22:40:34;;;;;;;4.13;2.78;;;;;;;25.26;40.92;100045.47;10277960;28;20317;-37
2023/07/10 22:45:35;;;;;;;5.95;2.63;;;;;;;26.20;39.29;100064.88;10288309;28;20235;-37
2023/07/10 22:50:42;;;;;;;3.92;3.00;;;;;;;25.58;40.18;100082.66;10278876;28;20242;-37
2023/07/10 22:55:44;;;;;;;4.47;2.90;;;;;;;26.30;40.06;100047.56;10277825;28;20239;-37
2023/07/10 23:00:45;;;;;;;5.47;2.72;;;;;;;24.63;42.12;100063.00;10277717;28;20266;-37
2023/07/10 23:05:47;;;;;;;4.95;2.92;;;;;;;23.51;43.58;100066.94;10281980;28;20611;-37
2023/07/10 23:10:49;;;;;;;4.47;2.92;;;;;;;23.55;43.66;100032.56;10269735;28;20292;-37
2023/07/10 23:15:51;;;;;;;7.28;2.88;;;;;;;24.76;41.86;100028.00;10270895;28;20234;-37
2023/07/10 23:20:53;;;;;;;5.95;2.90;;;;;;;23.19;45.20;100045.19;10264527;28;20234;-37
2023/07/10 23:25:55;;;;;;;4.15;3.10;;;;;;;23.89;43.60;100014.97;10279551;28;20862;-37